Latest Weather Observations for Mount Isa

IDQ60801

Issued at 7:05 pm EST Saturday 25 October 2014 (issued every 30 minutes, with the page automatically refreshed every 10 minutes)

About weather observations | Map of weather stations | Latest weather observations for QLD | Other Formats
Station Details ID: 029127 Name: MOUNT ISA AERO Lat: -20.68 Lon: 139.49 Height: 340.3 m
Data from the previous 72 hours. | See also: Recent months at Mount Isa
Date/Time
EST
Temp
°C
App
Temp
°C
Dew
Point
Rel
Hum
%
Delta-T
°C
Wind Press
QNH
hPa
Press
MSL
hPa
Rain
since 9 am
mm
Dir
 
Spd
km/h
Gust
km/h
Spd
kts
Gust
kts
25/07:00pm 32.6 27.1 0.8 13 15.9 ENE 19 28 10 15 1015.5 - 0.0
25/06:30pm 33.7 27.4 -0.7 11 16.9 ENE 22 33 12 18 1015.2 - 0.0
25/06:00pm 34.6 27.8 -1.9 9 17.7 E 24 35 13 19 1014.9 1012.9 0.0
25/05:30pm 35.3 28.4 -2.8 8 18.3 E 24 33 13 18 1014.5 - 0.0
25/05:00pm 35.8 28.9 -2.3 9 18.5 E 24 39 13 21 1014.4 - 0.0
25/04:30pm 36.6 29.8 -1.8 9 18.9 ENE 24 32 13 17 1014.3 - 0.0
25/04:00pm 36.4 28.5 -1.9 9 18.8 E 30 39 16 21 1014.4 - 0.0
25/03:30pm 36.8 29.4 -3.3 8 19.3 E 26 39 14 21 1014.7 - 0.0
25/03:17pm 36.1 27.7 -2.4 8 18.7 E 32 50 17 27 1014.9 - 0.0
25/03:10pm 36.8 27.9 -1.7 8 19.0 E 35 46 19 25 1014.9 - 0.0
25/03:00pm 36.4 32.1 -1.4 9 18.7 ENE 11 19 6 10 1015.1 1013.1 0.0
25/02:30pm 35.8 29.7 -2.3 9 18.5 E 20 37 11 20 1015.7 - 0.0
25/02:00pm 36.7 29.9 -2.1 8 19.0 E 24 35 13 19 1016.0 - 0.0
25/01:30pm 35.7 31.0 -2.1 9 18.4 ENE 13 37 7 20 1016.4 - 0.0
25/01:00pm 35.8 28.7 -1.3 9 18.3 NNE 26 46 14 25 1016.9 - 0.0
25/12:30pm 34.2 28.1 -2.7 9 17.6 NE 20 35 11 19 1017.6 - 0.0
25/12:00pm 34.2 28.0 -2.8 9 17.6 N 20 26 11 14 1018.2 1016.2 0.0
25/11:30am 32.9 27.5 -1.2 11 16.5 NNE 17 32 9 17 1018.8 - 0.0
25/11:00am 32.9 26.9 -3.2 9 16.9 NE 19 30 10 16 1019.0 - 0.0
25/10:30am 32.0 26.3 -0.4 12 15.8 NNE 19 30 10 16 1019.5 - 0.0
25/10:00am 31.7 25.1 -0.3 13 15.6 NNE 24 35 13 19 1019.7 - 0.0
25/09:30am 31.7 24.7 -0.8 12 15.7 NNE 26 33 14 18 1020.2 - 0.0
25/09:00am 30.2 23.7 0.2 14 14.6 NNE 24 35 13 19 1020.1 1018.2 0.0
25/08:30am 28.8 22.3 0.5 16 13.7 NNE 24 35 13 19 1020.1 - 0.0
25/08:00am 28.1 21.0 -1.2 14 13.7 NNE 26 33 14 18 1019.9 - 0.0
25/07:30am 27.3 21.1 -2.8 13 13.6 NNE 20 28 11 15 1019.5 - 0.0
25/07:00am 26.4 20.6 -4.8 12 13.5 NNE 17 24 9 13 1019.1 - 0.0
25/06:30am 25.1 20.0 -1.9 16 12.2 NE 15 22 8 12 1018.6 - 0.0
25/06:00am 25.5 20.1 -1.4 17 12.3 NE 17 26 9 14 1018.1 1016.1 0.0
25/05:30am 24.9 21.1 2.0 22 11.1 NE 11 15 6 8 1017.6 - 0.0
25/05:00am 25.9 21.8 2.2 21 11.6 ENE 13 15 7 8 1017.4 - 0.0
25/04:30am 26.2 22.0 1.8 20 11.9 E 13 20 7 11 1016.8 - 0.0
25/04:00am 27.2 22.6 1.3 18 12.6 E 15 20 8 11 1016.6 - 0.0
25/03:30am 27.0 23.1 1.2 18 12.5 E 11 17 6 9 1016.4 - 0.0
25/03:00am 26.7 23.3 2.1 20 12.1 E 9 11 5 6 1016.0 1014.0 0.0
25/02:30am 26.8 22.6 1.9 20 12.2 ESE 13 17 7 9 1016.1 - 0.0
25/02:00am 27.6 23.7 1.0 18 12.9 ESE 11 13 6 7 1016.1 - 0.0
25/01:30am 27.6 23.7 1.0 18 12.9 ESE 11 17 6 9 1016.2 - 0.0
25/01:00am 25.5 21.4 2.5 22 11.3 E 13 19 7 10 1016.3 - 0.0
25/12:58am 25.0 20.9 2.2 22 11.1 E 13 19 7 10 1016.3 - 0.0
25/12:30am 19.4 17.8 2.6 32 7.9 CALM 0 0 0 0 1016.5 - 0.0
25/12:00am 20.0 18.4 2.7 31 8.2 SW 0 0 0 0 1016.7 1014.8 0.0
 
Date/Time
EST
Temp
°C
App
Temp
°C
Dew
Point
Rel
Hum
%
Delta-T
°C
Wind Press
QNH
hPa
Press
MSL
hPa
Rain
since 9 am
mm
Dir
 
Spd
km/h
Gust
km/h
Spd
kts
Gust
kts
24/11:30pm 20.6 19.1 3.1 31 8.4 CALM 0 0 0 0 1016.7 - 0.0
24/11:00pm 23.1 19.9 3.0 27 9.8 S 9 11 5 6 1016.9 - 0.0
24/10:30pm 23.0 21.3 2.1 25 10.0 CALM 0 0 0 0 1016.9 - 0.0
24/10:00pm 23.1 21.0 3.7 28 9.6 S 4 9 2 5 1016.8 - 0.0
24/09:30pm 23.1 21.8 4.3 29 9.4 CALM 0 0 0 0 1016.6 - 0.0
24/09:00pm 24.4 21.6 3.1 25 10.5 ESE 7 7 4 4 1016.2 1014.3 0.0
24/08:30pm 29.3 26.7 4.3 20 13.0 ESE 7 9 4 5 1016.0 - 0.0
24/08:00pm 30.1 27.0 3.5 18 13.7 E 9 11 5 6 1015.8 - 0.0
24/07:30pm 31.8 27.7 0.1 13 15.6 E 11 17 6 9 1015.5 - 0.0
24/07:00pm 32.2 27.5 0.7 13 15.7 E 15 19 8 10 1015.2 - 0.0
24/06:30pm 33.0 27.9 0.6 12 16.2 E 17 26 9 14 1015.0 - 0.0
24/06:00pm 34.2 28.1 -2.1 10 17.5 E 20 32 11 17 1014.6 1012.6 0.0
24/05:30pm 34.8 28.1 -0.8 10 17.6 E 24 30 13 16 1014.3 - 0.0
24/05:00pm 34.9 29.1 -1.5 10 17.8 ENE 19 33 10 18 1014.1 - 0.0
24/04:30pm 36.0 28.8 -2.1 9 18.6 E 26 37 14 20 1014.0 - 0.0
24/04:13pm 35.8 27.4 -2.3 9 18.5 E 32 39 17 21 1014.1 - 0.0
24/04:00pm 35.5 30.4 -2.2 9 18.3 ENE 15 19 8 10 1014.1 - 0.0
24/03:30pm 35.9 29.7 0.0 10 18.1 E 22 35 12 19 1014.4 - 0.0
24/03:00pm 36.0 28.7 0.3 10 18.1 E 28 41 15 22 1014.8 1012.8 0.0
24/02:39pm 36.4 28.3 -0.5 9 18.5 E 32 50 17 27 1015.1 - 0.0
24/02:30pm 35.1 29.4 0.5 11 17.5 E 20 32 11 17 1015.1 - 0.0
24/02:00pm 35.9 30.2 0.4 10 18.0 E 20 28 11 15 1015.4 - 0.0
24/01:30pm 35.6 30.0 1.4 11 17.6 E 20 41 11 22 1015.8 - 0.0
24/01:00pm 34.7 29.3 1.5 12 17.0 ENE 19 37 10 20 1016.6 - 0.0
24/12:30pm 34.8 30.1 3.0 13 16.7 E 17 26 9 14 1017.1 - 0.0
24/12:00pm 34.1 29.1 3.6 14 16.1 NE 19 30 10 16 1017.9 1015.9 0.0
24/11:30am 33.5 27.9 3.7 15 15.7 E 22 30 12 16 1018.3 - 0.0
24/11:00am 33.6 27.4 2.0 13 16.2 ENE 24 35 13 19 1018.4 - 0.0
24/10:30am 32.9 27.9 3.4 15 15.4 NNE 19 32 10 17 1018.8 - 0.0
24/10:00am 32.3 26.5 4.3 17 14.8 NNE 24 32 13 17 1019.2 - 0.0
24/09:30am 30.3 24.8 4.2 19 13.6 NNE 22 30 12 16 1019.2 - 0.0
24/09:00am 29.7 23.8 3.7 19 13.4 NNE 24 32 13 17 1019.3 1017.4 0.0
24/08:30am 29.2 23.1 3.0 18 13.3 NE 24 30 13 16 1019.2 - 0.0
24/08:00am 28.2 21.9 1.5 18 13.1 NNE 24 32 13 17 1019.0 - 0.0
24/07:30am 27.6 22.0 1.4 18 12.8 NE 20 28 11 15 1018.7 - 0.0
24/07:00am 25.3 21.8 3.4 24 10.9 NE 11 13 6 7 1018.4 - 0.0
24/06:55am 24.3 20.8 3.6 26 10.3 ENE 11 13 6 7 1018.3 - 0.0
24/06:30am 19.3 17.0 4.9 38 7.1 ENE 6 9 3 5 1017.9 - 0.0
24/06:00am 18.8 15.9 4.7 39 6.9 NE 9 11 5 6 1017.6 1015.6 0.0
24/05:30am 22.0 19.5 4.5 32 8.7 ENE 7 13 4 7 1017.1 - 0.0
24/05:00am 25.0 21.5 3.6 25 10.7 ENE 11 13 6 7 1016.7 - 0.0
24/04:30am 25.1 22.2 4.7 26 10.4 E 9 11 5 6 1016.4 - 0.0
24/04:00am 25.9 22.2 4.3 25 11.0 E 13 20 7 11 1016.3 - 0.0
24/03:30am 26.5 22.0 4.1 23 11.4 E 17 20 9 11 1016.2 - 0.0
24/03:00am 26.9 23.5 3.9 22 11.7 E 11 15 6 8 1016.1 1014.1 0.0
24/02:30am 27.1 23.8 4.3 23 11.7 E 11 13 6 7 1016.2 - 0.0
24/02:00am 27.2 23.4 4.1 22 11.8 E 13 19 7 10 1016.4 - 0.0
24/01:30am 27.8 23.2 3.6 21 12.3 E 17 26 9 14 1016.4 - 0.0
24/01:00am 27.7 23.9 3.8 21 12.2 E 13 19 7 10 1016.7 - 0.0
24/12:30am 27.5 23.7 4.0 22 12.0 E 13 19 7 10 1016.8 - 0.0
24/12:00am 27.9 24.8 3.8 21 12.3 E 9 13 5 7 1016.9 1015.0 0.0
 
Date/Time
EST
Temp
°C
App
Temp
°C
Dew
Point
Rel
Hum
%
Delta-T
°C
Wind Press
QNH
hPa
Press
MSL
hPa
Rain
since 9 am
mm
Dir
 
Spd
km/h
Gust
km/h
Spd
kts
Gust
kts
23/11:53pm 26.1 23.6 3.7 23 11.3 E 6 11 3 6 1016.9 - 0.0
23/11:30pm 21.0 19.6 3.5 31 8.5 CALM 0 0 0 0 1017.0 - 0.0
23/11:00pm 21.3 20.2 4.9 34 8.2 CALM 0 0 0 0 1017.0 - 0.0
23/10:30pm 21.5 20.4 5.2 34 8.2 CALM 0 0 0 0 1017.0 - 0.0
23/10:00pm 22.2 21.0 4.6 31 8.8 CALM 0 0 0 0 1016.8 - 0.0
23/09:30pm 22.9 20.2 3.6 28 9.5 E 7 9 4 5 1016.6 - 0.0
23/09:00pm 24.5 21.9 4.3 27 10.2 E 7 11 4 6 1016.3 1014.4 0.0
23/08:30pm 27.7 24.8 6.6 26 11.3 ENE 11 13 6 7 1016.0 - 0.0
23/08:00pm 30.0 26.7 4.3 19 13.4 ENE 11 15 6 8 1015.6 - 0.0
23/07:30pm 31.2 27.4 1.9 15 14.8 ENE 11 17 6 9 1015.3 - 0.0
23/07:00pm 32.0 26.6 1.0 14 15.5 ENE 19 26 10 14 1014.9 - 0.0
23/06:30pm 32.6 28.2 0.4 13 16.0 ESE 13 15 7 8 1014.6 - 0.0
23/06:00pm 33.5 29.1 0.2 12 16.6 E 13 19 7 10 1014.1 1012.2 0.0
23/05:30pm 34.2 28.2 -1.6 10 17.4 ESE 20 30 11 16 1013.8 - 0.0
23/05:00pm 34.3 29.2 0.6 12 17.0 SE 17 26 9 14 1013.6 - 0.0
23/04:30pm 34.8 28.1 -0.8 10 17.6 ESE 24 37 13 20 1013.8 - 0.0
23/04:00pm 35.0 30.0 -1.2 10 17.8 ESE 15 24 8 13 1013.9 - 0.0
23/03:30pm 34.8 29.5 -0.3 11 17.5 E 17 22 9 12 1014.0 - 0.0
23/03:00pm 34.7 28.5 -0.6 10 17.5 E 22 33 12 18 1014.4 1012.4 0.0
23/02:30pm 35.6 29.9 -0.4 10 18.0 NNE 19 30 10 16 1014.8 - 0.0
23/02:00pm 34.1 27.6 0.0 11 17.0 SE 24 32 13 17 1015.3 - 0.0
23/01:30pm 34.5 28.6 -0.8 10 17.4 NE 20 30 11 16 1015.9 - 0.0
23/01:00pm 33.6 28.9 1.2 13 16.4 NE 15 30 8 16 1016.3 - 0.0
23/12:30pm 32.7 26.7 1.0 13 15.9 E 22 32 12 17 1017.2 - 0.0
23/12:00pm 33.1 27.9 2.4 14 15.8 NE 19 32 10 17 1017.7 1015.7 0.0
23/11:30am 32.2 27.7 4.4 17 14.7 NNE 17 30 9 16 1018.2 - 0.0
23/11:00am 31.5 27.3 5.6 19 13.9 NE 17 28 9 15 1018.8 - 0.0
23/10:30am 31.6 26.0 5.2 19 14.1 NNE 24 35 13 19 1019.0 - 0.0
23/10:00am 30.4 25.6 5.7 21 13.2 NE 20 30 11 16 1019.3 - 0.0
23/09:30am 29.5 24.8 5.9 22 12.6 NNE 20 28 11 15 1019.6 - 0.0
23/09:00am 28.6 23.2 6.4 24 11.9 NNE 24 33 13 18 1019.5 1017.6 0.0
23/08:30am 28.0 22.6 6.5 25 11.5 NE 24 33 13 18 1019.5 - 0.0
23/08:00am 27.2 22.4 5.4 25 11.4 NE 20 30 11 16 1019.2 - 0.0
23/07:30am 26.4 22.3 4.2 24 11.3 ENE 15 22 8 12 1019.0 - 0.0
23/07:00am 24.6 21.2 4.1 26 10.3 ENE 11 13 6 7 1018.8 - 0.0
23/06:30am 20.1 16.6 1.5 29 8.6 NE 9 13 5 7 1018.5 - 0.0
23/06:00am 20.7 17.3 2.0 29 8.8 ENE 9 11 5 6 1018.0 1016.0 0.0
23/05:30am 24.4 21.1 2.4 23 10.7 ENE 9 13 5 7 1017.5 - 0.0
23/05:00am 25.2 20.9 -1.7 17 12.2 E 11 15 6 8 1016.9 - 0.0
23/04:30am 25.6 20.5 -2.0 16 12.5 ESE 15 20 8 11 1016.5 - 0.0
23/04:00am 26.1 20.9 -2.6 15 12.9 E 15 19 8 10 1016.4 - 0.0
23/03:30am 26.3 21.1 -3.0 14 13.1 E 15 20 8 11 1016.4 - 0.0
23/03:00am 26.6 21.7 -3.2 14 13.3 E 13 17 7 9 1016.5 1014.6 0.0
23/02:30am 26.7 21.5 -2.4 14 13.2 E 15 20 8 11 1016.6 - 0.0
23/02:00am 26.8 20.9 -2.6 14 13.3 E 19 20 10 11 1016.7 - 0.0
23/01:30am 25.0 20.5 -0.4 18 11.8 SE 13 19 7 10 1016.9 - 0.0
23/01:00am 23.7 19.2 -0.5 20 11.1 SE 13 15 7 8 1017.1 - 0.0
23/12:30am 19.3 15.9 1.8 31 8.1 SE 9 13 5 7 1017.2 - 0.0
23/12:00am 19.6 16.7 2.7 32 8.0 SSE 7 11 4 6 1017.5 1015.5 0.0
 
Date/Time
EST
Temp
°C
App
Temp
°C
Dew
Point
Rel
Hum
%
Delta-T
°C
Wind Press
QNH
hPa
Press
MSL
hPa
Rain
since 9 am
mm
Dir
 
Spd
km/h
Gust
km/h
Spd
kts
Gust
kts
22/11:30pm 19.4 16.6 3.3 34 7.7 S 7 9 4 5 1017.7 - 0.0
22/11:00pm 20.8 18.0 3.1 31 8.5 S 7 7 4 4 1017.7 - 0.0
22/10:30pm 21.9 19.1 2.1 27 9.4 S 6 7 3 4 1017.7 - 0.0
22/10:00pm 21.3 19.7 2.7 29 8.9 CALM 0 0 0 0 1017.5 - 0.0
22/09:30pm 22.8 19.8 2.1 25 9.9 SE 7 9 4 5 1017.4 - 0.0
22/09:00pm 27.5 24.3 3.0 20 12.3 ESE 9 11 5 6 1017.0 1015.1 0.0
22/08:30pm 29.1 24.6 -0.3 15 14.1 ESE 13 15 7 8 1016.7 - 0.0
22/08:00pm 29.9 24.8 -2.3 12 15.0 ESE 15 20 8 11 1016.4 - 0.0
22/07:30pm 29.9 25.1 -2.8 12 15.1 ESE 13 19 7 10 1016.1 - 0.0

Other Formats:

Comma delimited format used in spreadsheet applications
http://www.bom.gov.au/fwo/IDQ60801/IDQ60801.94332.axf

JavaScript Object Notation format (JSON) in row-major order
http://www.bom.gov.au/fwo/IDQ60801/IDQ60801.94332.json